Hanalei, HI (96714)

3:23 AM HST on August 30, 2016 (GMT -1000)
North Shore of Kauai | | Change Station
Active Advisory: High Surf Advisory

Elev 200 ft 22.23 °N, 159.48 °W | Updated 22 seconds ago

Partly Cloudy
Partly Cloudy
72.3 °F
Feels Like 74 °F
N
3.4
Wind Variable Wind from SSE
Gusts 6.5 mph

Today
High -- | Low -- °F
--% Chance of Precip.
Yesterday
High -- | Low -- °F
Precip. -- in
Pressure 30.03 in
Visibility 10.0 miles
Clouds Few 2700 ft
Heat Index 74 °F
Dew Point 64 °F
Humidity 76%
Rainfall 0.00 in
Snow Depth Not available.
6:20 AM 6:55 PM
Waning Crescent, 4% visible
METAR PHLI 301253Z 06011KT 10SM FEW027 26/19 A3003 RMK AO2 SLP167 T02560194 $
Pressure 30.03 in
Visibility 10.0 miles
Clouds Few 2700 ft
Heat Index 74 °F
Dew Point 64 °F
Humidity 76%
Rainfall 0.00 in
Snow Depth Not available.
6:20 AM 6:55 PM
Waning Crescent, 4% visible
METAR PHLI 301253Z 06011KT 10SM FEW027 26/19 A3003 RMK AO2 SLP167 T02560194 $
Hurricane Madeline rapidly intensified from Sunday into Monday morning, and it may take a close swipe at parts of the Hawaiian Islands in the days ahead. Madeline's estimated peak surface winds increased from a 50 mph tropical storm Sunday morning, to a 125 mph Category 3 hurricane by Monday evening. A hurricane watch has been issued for Hawaii's Big Island. This means hurricane-force winds are possible within the warning area in the next 48 hours or less.

10-Day Weather Forecast

Almanac

Astronomy

Aug. 30, 2016 Rise Set
Actual Time
Civil Twilight
Nautical Twilight
Astronomical Twilight
Moon
Length of Visible Light
Length of Day
Tomorrow will be .
, % of the Moon is Illuminated

Today's Extremes

State Highs State Lows

Community

WunderPhotos

Upload Photos

1,935,831 photos uploaded!

WunderBlog® & News

Nearby

Air Quality

  Air Quality AQ Index Pollutant
Not available.

Snow Depth

Station Depth Elevation

Earthquake Activity

City Distance Mag. Time & Date
Minimum magnitude displayed is 2.5.

Coastal Water Temperatures

Place Temperature

Stations

Nearby Weather Stations

Station Location Temp. Windchill Dew Point Humidity Wind Precip. Elev Updated Type
                   

Watches & Warnings

High Surf Advisory
Issued: 4:45 PM HST Aug. 29, 2016 – National Weather Service

... High surf advisory in effect from 6 PM Tuesday to 6 am HST
Thursday...

The National Weather Service in Honolulu has issued a high surf
advisory... which is in effect from 6 PM Tuesday to 6 am HST
Thursday.

* Surf... building to 5 to 9 feet Tuesday night.

* Timing... building late Tuesday and peaking Wednesday.

* Impacts... moderate... expect strong breaking waves... shore
break... and strong longshore and rip currents making swimming
difficult and dangerous.

Precautionary/preparedness actions...

Beachgoers... swimmers... and surfers should heed all advice given
by ocean safety officials and exercise caution.


Wroe